createdAt,value
2019-03-18T00:02:08.860Z,69.39
2019-03-18T00:04:37.069Z,69.57
2019-03-18T00:07:05.293Z,69.46
2019-03-18T00:09:33.516Z,69.18
2019-03-18T00:12:01.771Z,69.28
2019-03-18T00:14:29.985Z,69.10
2019-03-18T00:16:58.228Z,68.79
2019-03-18T00:19:26.425Z,69.02
2019-03-18T00:21:54.633Z,69.71
2019-03-18T00:24:22.865Z,69.27
2019-03-18T00:26:51.146Z,69.53
2019-03-18T00:29:20.309Z,69.81
2019-03-18T00:31:48.523Z,69.17
2019-03-18T00:34:16.732Z,69.20
2019-03-18T00:36:44.969Z,68.61
2019-03-18T00:39:13.183Z,68.37
2019-03-18T00:41:41.388Z,68.31
2019-03-18T00:44:09.597Z,68.33
2019-03-18T00:46:37.809Z,68.47
2019-03-18T00:49:06.016Z,68.05
2019-03-18T00:51:34.265Z,68.00
2019-03-18T00:54:02.570Z,67.76
2019-03-18T00:56:30.783Z,68.16
2019-03-18T00:58:58.992Z,68.50
2019-03-18T01:01:27.237Z,68.63
2019-03-18T01:03:55.445Z,68.67
2019-03-18T01:06:23.666Z,68.32
2019-03-18T01:08:51.882Z,68.36
2019-03-18T01:11:20.083Z,68.51
2019-03-18T01:13:48.299Z,67.86
2019-03-18T01:16:16.502Z,68.64
2019-03-18T01:18:44.721Z,68.53
2019-03-18T01:21:12.933Z,68.68
2019-03-18T01:23:41.144Z,68.34
2019-03-18T01:26:09.386Z,68.61
2019-03-18T01:28:37.840Z,68.07
2019-03-18T01:31:06.057Z,68.89
2019-03-18T01:33:34.271Z,69.51
2019-03-18T01:36:02.502Z,69.86
2019-03-18T01:38:30.800Z,70.23
2019-03-18T01:40:59.010Z,70.23
2019-03-18T01:43:27.216Z,70.51
2019-03-18T01:45:55.420Z,70.73
2019-03-18T01:48:23.627Z,71.50
2019-03-18T01:50:51.834Z,72.06
2019-03-18T01:53:20.115Z,72.42
2019-03-18T01:55:48.326Z,72.45
2019-03-18T01:58:17.423Z,72.44
2019-03-18T02:00:45.627Z,73.92
2019-03-18T02:03:13.856Z,73.84
2019-03-18T02:05:42.061Z,74.00
2019-03-18T02:08:10.310Z,74.06
2019-03-18T02:10:38.524Z,74.24
2019-03-18T02:13:06.731Z,74.44
2019-03-18T02:15:34.935Z,75.13
2019-03-18T02:18:03.142Z,75.24
2019-03-18T02:20:31.365Z,75.41
2019-03-18T02:22:59.569Z,75.71
2019-03-18T02:25:27.778Z,76.07
2019-03-18T02:27:55.989Z,76.43
2019-03-18T02:30:24.198Z,76.03
2019-03-18T02:32:52.417Z,76.52
2019-03-18T02:35:20.619Z,76.17
2019-03-18T02:37:48.833Z,76.41
2019-03-18T02:40:17.053Z,76.08
2019-03-18T02:42:45.266Z,76.35
2019-03-18T02:45:13.566Z,76.81
2019-03-18T02:47:41.787Z,76.01
2019-03-18T02:50:10.237Z,76.70
2019-03-18T02:52:38.453Z,75.96
2019-03-18T02:55:07.809Z,76.03
2019-03-18T02:57:36.050Z,75.59
2019-03-18T03:00:32.069Z,75.68
2019-03-18T03:03:00.303Z,75.14
2019-03-18T03:05:28.501Z,75.06
2019-03-18T03:07:56.711Z,74.66
2019-03-18T03:10:24.925Z,74.29
2019-03-18T03:12:53.131Z,74.45
2019-03-18T03:15:21.350Z,74.36
2019-03-18T03:17:50.617Z,74.49
2019-03-18T03:20:18.824Z,74.43
2019-03-18T03:22:47.094Z,74.69
2019-03-18T03:25:15.273Z,74.78
2019-03-18T03:27:43.487Z,74.74
2019-03-18T03:30:14.427Z,74.77
2019-03-18T03:32:42.752Z,75.10
2019-03-18T03:35:10.975Z,75.04
2019-03-18T03:37:39.164Z,75.01
2019-03-18T03:40:09.664Z,74.83
2019-03-18T03:42:37.944Z,74.94
2019-03-18T03:45:07.837Z,74.46
2019-03-18T03:47:36.059Z,74.71
2019-03-18T03:50:04.931Z,74.69
2019-03-18T03:52:33.145Z,74.84
2019-03-18T03:55:01.375Z,74.50
2019-03-18T03:57:29.593Z,74.79
2019-03-18T03:59:57.798Z,74.93
2019-03-18T04:02:26.015Z,74.50
2019-03-18T04:04:54.220Z,74.62
2019-03-18T04:07:22.441Z,74.23
2019-03-18T04:09:50.913Z,73.90
2019-03-18T04:12:19.124Z,74.33
2019-03-18T04:14:47.372Z,74.12
2019-03-18T04:17:15.586Z,74.55
2019-03-18T04:19:43.820Z,74.53
2019-03-18T04:22:12.051Z,74.66
2019-03-18T04:24:40.256Z,74.34
2019-03-18T04:27:08.482Z,74.34
2019-03-18T04:29:36.693Z,74.37
2019-03-18T04:32:04.922Z,74.11
2019-03-18T04:34:33.136Z,73.84
2019-03-18T04:37:01.381Z,73.84
2019-03-18T04:39:29.602Z,74.17
2019-03-18T04:41:57.821Z,73.86
2019-03-18T04:44:26.044Z,73.82
2019-03-18T04:46:54.277Z,73.87
2019-03-18T04:49:22.492Z,73.70
2019-03-18T04:51:51.246Z,73.69
2019-03-18T04:54:19.457Z,73.81
2019-03-18T04:56:47.692Z,73.60
2019-03-18T04:59:15.904Z,73.92
2019-03-18T05:01:44.116Z,73.24
2019-03-18T05:04:12.364Z,72.86
2019-03-18T05:06:40.579Z,72.59
2019-03-18T05:09:08.847Z,72.16
2019-03-18T05:11:37.094Z,71.59
2019-03-18T05:14:05.305Z,71.38
2019-03-18T05:16:33.521Z,71.00
2019-03-18T05:19:01.736Z,71.10
2019-03-18T05:21:29.957Z,70.79
2019-03-18T05:23:58.180Z,70.60
2019-03-18T05:26:26.399Z,70.68
2019-03-18T05:28:54.630Z,70.83
2019-03-18T05:31:22.836Z,71.08
2019-03-18T05:33:51.489Z,70.70
2019-03-18T05:36:19.769Z,71.13
2019-03-18T05:38:47.985Z,71.07
2019-03-18T05:41:16.248Z,71.08
2019-03-18T05:43:44.437Z,71.50
2019-03-18T05:46:12.690Z,71.83
2019-03-18T05:48:40.934Z,71.68
2019-03-18T05:51:09.156Z,71.60
2019-03-18T05:53:37.364Z,71.85
2019-03-18T05:56:05.577Z,71.85
2019-03-18T05:58:33.815Z,71.79
2019-03-18T06:01:02.058Z,71.64
2019-03-18T06:03:30.287Z,71.56
2019-03-18T06:05:58.503Z,71.42
2019-03-18T06:08:26.748Z,71.49
2019-03-18T06:10:54.978Z,71.73
2019-03-18T06:13:23.389Z,71.50
2019-03-18T06:15:51.737Z,71.64
2019-03-18T06:18:19.966Z,71.52
2019-03-18T06:20:48.176Z,71.06
2019-03-18T06:23:16.395Z,70.87
2019-03-18T06:25:44.631Z,71.15
2019-03-18T06:28:12.852Z,71.16
2019-03-18T06:30:41.078Z,70.68
2019-03-18T06:33:09.295Z,70.22
2019-03-18T06:35:37.515Z,70.60
2019-03-18T06:38:05.725Z,70.24
2019-03-18T06:40:33.949Z,69.80
2019-03-18T06:43:02.166Z,69.80
2019-03-18T06:45:30.383Z,69.67
2019-03-18T06:48:04.827Z,69.47
2019-03-18T06:50:28.571Z,69.58
2019-03-18T06:52:56.796Z,70.80
2019-03-18T06:55:25.008Z,70.47
2019-03-18T06:57:53.227Z,70.19
2019-03-18T07:00:22.084Z,70.12
2019-03-18T07:02:50.312Z,70.52
2019-03-18T07:05:18.515Z,71.02
2019-03-18T07:07:46.732Z,71.04
2019-03-18T07:10:14.953Z,71.50
2019-03-18T07:12:43.171Z,72.20
2019-03-18T07:15:11.479Z,72.96
2019-03-18T07:17:39.686Z,72.69
2019-03-18T07:20:13.767Z,72.19
2019-03-18T07:22:42.085Z,71.92
2019-03-18T07:25:10.320Z,71.11
2019-03-18T07:27:38.552Z,70.65
2019-03-18T07:30:12.193Z,70.34
2019-03-18T07:32:40.417Z,71.61
2019-03-18T07:35:08.624Z,71.98
2019-03-18T07:37:36.960Z,71.94
2019-03-18T07:40:16.195Z,72.53
2019-03-18T07:42:44.403Z,71.98
2019-03-18T07:45:15.890Z,71.82
2019-03-18T07:47:44.124Z,71.31
2019-03-18T07:50:15.599Z,70.84
2019-03-18T07:52:43.808Z,70.45
2019-03-18T07:55:12.030Z,70.01
2019-03-18T07:57:40.302Z,69.65
2019-03-18T08:00:15.503Z,69.00
2019-03-18T08:02:43.707Z,68.63
2019-03-18T08:05:11.924Z,68.91
2019-03-18T08:07:40.135Z,68.40
2019-03-18T08:10:10.381Z,67.95
2019-03-18T08:12:38.957Z,67.40
2019-03-18T08:15:09.290Z,67.09
2019-03-18T08:17:37.499Z,67.00
2019-03-18T08:20:10.476Z,66.89
2019-03-18T08:22:38.733Z,66.77
2019-03-18T08:25:08.507Z,66.38
2019-03-18T08:27:36.719Z,66.05
2019-03-18T08:30:13.265Z,65.81
2019-03-18T08:32:41.523Z,66.05
2019-03-18T08:35:09.736Z,65.86
2019-03-18T08:37:37.977Z,65.46
2019-03-18T08:40:10.676Z,65.16
2019-03-18T08:42:38.889Z,64.88
2019-03-18T08:45:09.911Z,65.57
2019-03-18T08:47:38.126Z,66.06
2019-03-18T08:50:11.911Z,65.93
2019-03-18T08:52:38.858Z,64.28
2019-03-18T08:55:08.917Z,64.43
2019-03-18T08:57:37.130Z,63.03
2019-03-18T09:00:08.637Z,62.88
2019-03-18T09:02:36.867Z,62.56
2019-03-18T09:05:06.295Z,61.86
2019-03-18T09:07:34.547Z,60.36
2019-03-18T09:10:02.828Z,59.69
2019-03-18T09:12:31.041Z,58.89
2019-03-18T09:14:59.291Z,60.95
2019-03-18T09:17:27.509Z,59.61
2019-03-18T09:19:55.729Z,60.76
2019-03-18T09:22:24.068Z,62.30
2019-03-18T09:24:53.208Z,62.58
2019-03-18T09:27:21.427Z,64.29
2019-03-18T09:29:49.652Z,64.17
2019-03-18T09:32:17.899Z,63.20
2019-03-18T09:34:46.105Z,63.46
2019-03-18T09:37:14.335Z,63.43
2019-03-18T09:39:42.548Z,64.04
2019-03-18T09:42:10.778Z,62.85
2019-03-18T09:44:38.994Z,61.93
2019-03-18T09:47:07.203Z,60.76
2019-03-18T09:49:35.441Z,58.56
2019-03-18T09:52:03.659Z,58.82
2019-03-18T09:54:31.875Z,57.82
2019-03-18T09:57:00.097Z,56.61
2019-03-18T09:59:28.335Z,56.25
2019-03-18T10:01:56.550Z,56.20
2019-03-18T10:04:24.789Z,54.98
2019-03-18T10:06:53.958Z,53.60
2019-03-18T10:09:22.189Z,52.57
2019-03-18T10:11:50.405Z,51.25
2019-03-18T10:14:19.827Z,50.75
2019-03-18T10:16:48.130Z,50.46
2019-03-18T10:19:16.369Z,51.04
2019-03-18T10:21:44.570Z,52.25
2019-03-18T10:24:12.786Z,52.44
2019-03-18T10:26:41.052Z,51.94
2019-03-18T10:29:09.277Z,51.22
2019-03-18T10:31:37.478Z,52.14
2019-03-18T10:34:05.693Z,51.16
2019-03-18T10:36:33.913Z,50.97
2019-03-18T10:39:02.155Z,51.96
2019-03-18T10:41:30.371Z,52.09
2019-03-18T10:43:58.600Z,51.36
2019-03-18T10:46:26.820Z,51.88
2019-03-18T10:48:55.029Z,51.52
2019-03-18T10:51:23.916Z,52.18
2019-03-18T10:53:52.123Z,51.34
2019-03-18T10:56:20.378Z,52.34
2019-03-18T10:58:48.624Z,55.34
2019-03-18T11:01:16.877Z,56.82
2019-03-18T11:03:45.088Z,58.25
2019-03-18T11:06:13.303Z,60.42
2019-03-18T11:08:41.517Z,60.78
2019-03-18T11:11:09.740Z,61.32
2019-03-18T11:13:37.960Z,61.63
2019-03-18T11:16:06.192Z,61.21
2019-03-18T11:18:34.416Z,61.74
2019-03-18T11:21:02.634Z,62.81
2019-03-18T11:23:30.854Z,61.18
2019-03-18T11:25:59.064Z,60.00
2019-03-18T11:28:27.293Z,60.03
2019-03-18T11:30:55.509Z,59.92
2019-03-18T11:33:24.079Z,60.42
2019-03-18T11:35:52.286Z,63.03
2019-03-18T11:38:20.499Z,64.10
2019-03-18T11:40:48.718Z,64.69
2019-03-18T11:43:16.943Z,65.04
2019-03-18T11:45:45.154Z,65.97
2019-03-18T11:48:13.360Z,65.51
2019-03-18T11:50:41.657Z,66.82
2019-03-18T11:53:14.487Z,66.89
2019-03-18T11:55:39.806Z,66.13
2019-03-18T11:58:08.038Z,65.97
2019-03-18T12:00:36.244Z,67.27
2019-03-18T12:03:04.466Z,66.35
2019-03-18T12:05:32.673Z,66.32
2019-03-18T12:08:00.891Z,66.18
2019-03-18T12:10:29.096Z,62.77
2019-03-18T12:12:57.309Z,61.25
2019-03-18T12:15:26.491Z,61.29
2019-03-18T12:17:54.749Z,61.61
2019-03-18T12:20:25.509Z,59.52
2019-03-18T12:22:52.853Z,58.67
2019-03-18T12:25:21.066Z,56.75
2019-03-18T12:27:50.441Z,55.56
2019-03-18T12:30:21.057Z,55.37
2019-03-18T12:32:49.266Z,54.24
2019-03-18T12:35:17.497Z,53.24
2019-03-18T12:37:45.739Z,54.20
2019-03-18T12:40:17.600Z,55.23
2019-03-18T12:42:45.889Z,51.28
2019-03-18T12:45:16.218Z,50.96
2019-03-18T12:47:44.431Z,51.24
2019-03-18T12:50:38.724Z,51.91
2019-03-18T12:52:50.978Z,50.38
2019-03-18T12:55:19.204Z,49.30
2019-03-18T12:57:47.430Z,50.05
2019-03-18T13:00:24.064Z,51.61
2019-03-18T13:02:52.300Z,50.55
2019-03-18T13:05:20.536Z,49.68
2019-03-18T13:07:48.755Z,48.61
2019-03-18T13:10:21.405Z,47.91
2019-03-18T13:12:49.028Z,47.71
2019-03-18T13:15:19.149Z,47.21
2019-03-18T13:17:47.394Z,47.51
2019-03-18T13:20:17.063Z,47.40
2019-03-18T13:22:45.298Z,48.71
2019-03-18T13:25:13.863Z,49.24
2019-03-18T13:27:42.079Z,49.17
2019-03-18T13:30:18.233Z,49.56
2019-03-18T13:32:46.454Z,50.14
2019-03-18T13:35:14.666Z,49.04
2019-03-18T13:37:42.900Z,48.55
2019-03-18T13:40:17.967Z,47.38
2019-03-18T13:42:46.207Z,47.05
2019-03-18T13:45:19.988Z,46.74
2019-03-18T13:47:48.220Z,47.46
2019-03-18T13:50:17.467Z,47.30
2019-03-18T13:52:45.683Z,47.75
2019-03-18T13:55:13.910Z,47.31
2019-03-18T13:57:42.170Z,46.16
2019-03-18T14:00:15.868Z,46.69
2019-03-18T14:02:44.077Z,46.62
2019-03-18T14:05:12.346Z,45.98
2019-03-18T14:07:40.546Z,46.61
2019-03-18T14:10:17.902Z,47.05
2019-03-18T14:12:46.119Z,47.17
2019-03-18T14:15:19.641Z,49.31
2019-03-18T14:17:47.858Z,50.53
2019-03-18T14:20:18.532Z,51.52
2019-03-18T14:22:46.765Z,52.79
2019-03-18T14:25:15.002Z,53.57
2019-03-18T14:27:43.238Z,53.94
2019-03-18T14:30:19.792Z,54.56
2019-03-18T14:32:47.997Z,54.01
2019-03-18T14:35:16.208Z,54.28
2019-03-18T14:37:44.432Z,54.20
2019-03-18T14:40:17.857Z,53.75
2019-03-18T14:42:46.077Z,53.61
2019-03-18T14:45:16.349Z,52.20
2019-03-18T14:47:44.584Z,51.37
2019-03-18T14:50:14.071Z,50.90
2019-03-18T14:52:42.333Z,51.52
2019-03-18T14:55:13.858Z,51.13
2019-03-18T14:57:42.061Z,51.26
2019-03-18T15:00:14.744Z,51.95
2019-03-18T15:02:43.290Z,53.88
2019-03-18T15:05:13.470Z,55.03
2019-03-18T15:07:41.687Z,56.31
2019-03-18T15:10:13.159Z,56.90
2019-03-18T15:12:41.435Z,57.00
2019-03-18T15:15:12.491Z,56.77
2019-03-18T15:17:40.827Z,56.39
2019-03-18T15:20:12.359Z,59.26
2019-03-18T15:22:40.767Z,60.29
2019-03-18T15:25:12.085Z,61.89
2019-03-18T15:27:40.328Z,63.70
2019-03-18T15:30:14.398Z,65.73
2019-03-18T15:32:42.606Z,66.59
2019-03-18T15:35:11.799Z,67.99
2019-03-18T15:37:40.017Z,69.42
2019-03-18T15:40:11.419Z,70.50
2019-03-18T15:42:39.658Z,71.73
2019-03-18T15:45:10.987Z,71.11
2019-03-18T15:47:39.209Z,71.49
2019-03-18T15:50:12.789Z,71.12
2019-03-18T15:52:40.340Z,71.81
2019-03-18T15:55:08.938Z,71.98
2019-03-18T15:57:37.162Z,71.86
2019-03-18T16:00:08.873Z,72.52
2019-03-18T16:02:37.097Z,71.89
2019-03-18T16:05:06.441Z,71.99
2019-03-18T16:07:34.792Z,70.48
2019-03-18T16:10:03.292Z,70.69
2019-03-18T16:12:31.528Z,70.33
2019-03-18T16:14:59.737Z,70.65
2019-03-18T16:17:27.958Z,69.98
2019-03-18T16:19:56.434Z,69.59
2019-03-18T16:22:24.643Z,69.05
2019-03-18T16:24:52.884Z,68.15
2019-03-18T16:27:21.101Z,67.74
2019-03-18T16:29:49.308Z,67.33
2019-03-18T16:32:17.544Z,66.69
2019-03-18T16:34:45.751Z,65.78
2019-03-18T16:37:14.008Z,64.77
2019-03-18T16:39:42.340Z,64.00
2019-03-18T16:42:10.804Z,63.55
2019-03-18T16:44:39.028Z,63.21
2019-03-18T16:47:07.252Z,62.97
2019-03-18T16:49:35.475Z,63.35
2019-03-18T16:52:03.683Z,63.25
2019-03-18T16:54:31.909Z,62.96
2019-03-18T16:57:00.133Z,63.56
2019-03-18T16:59:28.350Z,62.86
2019-03-18T17:01:56.676Z,62.63
2019-03-18T17:04:25.376Z,62.34
2019-03-18T17:06:53.595Z,62.57
2019-03-18T17:09:21.808Z,61.86
2019-03-18T17:11:50.022Z,61.33
2019-03-18T17:14:18.248Z,61.20
2019-03-18T17:16:46.484Z,61.41
2019-03-18T17:19:14.696Z,61.53
2019-03-18T17:21:42.915Z,61.31
2019-03-18T17:24:11.127Z,61.38
2019-03-18T17:26:39.381Z,61.17
2019-03-18T17:29:07.588Z,61.26
2019-03-18T17:31:35.801Z,61.59
2019-03-18T17:34:04.023Z,61.71
2019-03-18T17:36:32.248Z,61.37
2019-03-18T17:39:00.605Z,62.04
2019-03-18T17:41:28.828Z,62.32
2019-03-18T17:43:57.064Z,62.79
2019-03-18T17:46:25.437Z,63.22
2019-03-18T17:48:53.803Z,63.45
2019-03-18T17:51:22.189Z,63.74
2019-03-18T17:53:50.385Z,63.92
2019-03-18T17:56:29.727Z,64.52
2019-03-18T17:58:48.563Z,64.99
2019-03-18T18:01:17.614Z,65.09
2019-03-18T18:03:45.839Z,65.75
2019-03-18T18:06:14.095Z,66.71
2019-03-18T18:08:42.314Z,66.80
2019-03-18T18:11:10.523Z,69.31
2019-03-18T18:13:38.737Z,69.20
2019-03-18T18:16:06.955Z,69.35
2019-03-18T18:18:35.194Z,69.54
2019-03-18T18:21:03.402Z,70.06
2019-03-18T18:23:31.618Z,70.47
2019-03-18T18:25:59.847Z,71.15
2019-03-18T18:28:28.614Z,71.34
2019-03-18T18:30:57.321Z,71.53
2019-03-18T18:33:25.541Z,71.56
2019-03-18T18:35:53.798Z,72.48
2019-03-18T18:38:22.003Z,72.03
2019-03-18T18:40:50.221Z,71.25
2019-03-18T18:43:18.446Z,70.55
2019-03-18T18:45:46.659Z,70.54
2019-03-18T18:48:14.896Z,70.35
2019-03-18T18:50:43.103Z,69.74
2019-03-18T18:53:11.433Z,69.85
2019-03-18T18:55:39.823Z,69.95
2019-03-18T18:58:08.032Z,69.84
2019-03-18T19:00:36.263Z,70.23
2019-03-18T19:03:04.470Z,70.41
2019-03-18T19:05:32.686Z,70.44
2019-03-18T19:08:00.892Z,70.83
2019-03-18T19:10:29.104Z,71.02
2019-03-18T19:12:57.641Z,71.31
2019-03-18T19:15:28.454Z,71.52
2019-03-18T19:17:57.676Z,71.34
2019-03-18T19:20:25.920Z,71.99
2019-03-18T19:22:54.145Z,72.04
2019-03-18T19:25:22.358Z,72.29
2019-03-18T19:27:50.590Z,71.99
2019-03-18T19:30:23.492Z,72.35
2019-03-18T19:32:51.714Z,72.31
2019-03-18T19:35:19.946Z,72.15
2019-03-18T19:37:48.147Z,72.42
2019-03-18T19:40:19.651Z,72.23
2019-03-18T19:42:47.865Z,72.29
2019-03-18T19:45:16.080Z,72.43
2019-03-18T19:47:44.451Z,72.32
2019-03-18T19:50:29.849Z,72.18
2019-03-18T19:52:58.068Z,72.32
2019-03-18T19:55:26.282Z,72.48
2019-03-18T19:57:54.562Z,72.54
2019-03-18T20:00:23.612Z,72.47
2019-03-18T20:02:51.896Z,72.68
2019-03-18T20:05:20.116Z,72.53
2019-03-18T20:07:48.327Z,72.26
2019-03-18T20:10:17.889Z,72.21
2019-03-18T20:12:46.079Z,71.63
2019-03-18T20:15:15.451Z,71.09
2019-03-18T20:17:43.660Z,70.65
2019-03-18T20:20:20.048Z,70.56
2019-03-18T20:22:48.284Z,70.39
2019-03-18T20:25:16.502Z,70.49
2019-03-18T20:27:44.953Z,70.26
2019-03-18T20:30:21.181Z,69.96
2019-03-18T20:32:49.403Z,69.84
2019-03-18T20:35:21.252Z,69.87
2019-03-18T20:37:51.866Z,69.95
2019-03-18T20:40:19.414Z,69.96
2019-03-18T20:42:47.660Z,69.89
2019-03-18T20:45:17.755Z,69.90
2019-03-18T20:47:45.972Z,69.65
2019-03-18T20:50:21.796Z,69.55
2019-03-18T20:52:50.009Z,69.51
2019-03-18T20:55:18.228Z,69.82
2019-03-18T20:57:46.439Z,69.60
2019-03-18T21:00:19.418Z,69.89
2019-03-18T21:02:47.639Z,70.08
2019-03-18T21:05:15.871Z,70.11
2019-03-18T21:07:44.089Z,70.25
2019-03-18T21:10:21.592Z,70.37
2019-03-18T21:12:49.801Z,70.62
2019-03-18T21:15:18.608Z,71.17
2019-03-18T21:17:46.837Z,71.17
2019-03-18T21:20:26.355Z,71.35
2019-03-18T21:22:54.724Z,71.31
2019-03-18T21:25:22.943Z,71.78
2019-03-18T21:27:51.155Z,71.86
2019-03-18T21:30:20.318Z,72.14
2019-03-18T21:32:48.591Z,72.38
2019-03-18T21:35:16.822Z,72.31
2019-03-18T21:37:45.039Z,72.85
2019-03-18T21:40:17.716Z,73.12
2019-03-18T21:42:45.929Z,73.08
2019-03-18T21:45:17.180Z,73.04
2019-03-18T21:47:45.425Z,73.05
2019-03-18T21:50:15.490Z,73.07
2019-03-18T21:52:43.721Z,73.20
2019-03-18T21:55:12.086Z,73.34
2019-03-18T21:57:40.306Z,73.72
2019-03-18T22:00:24.105Z,74.37
2019-03-18T22:02:52.323Z,74.94
2019-03-18T22:05:20.543Z,75.15
2019-03-18T22:07:48.768Z,74.46
2019-03-18T22:10:18.111Z,73.93
2019-03-18T22:12:46.901Z,73.73
2019-03-18T22:15:15.878Z,73.74
2019-03-18T22:17:44.095Z,74.00
2019-03-18T22:20:14.141Z,73.82
2019-03-18T22:22:42.352Z,74.36
2019-03-18T22:25:12.123Z,74.10
2019-03-18T22:27:40.339Z,74.39
2019-03-18T22:30:11.348Z,74.53
2019-03-18T22:32:39.680Z,74.75
2019-03-18T22:35:08.629Z,74.89
2019-03-18T22:37:36.835Z,74.97
2019-03-18T22:40:12.781Z,74.84
2019-03-18T22:42:41.001Z,74.61
2019-03-18T22:45:17.266Z,74.45
2019-03-18T22:47:45.559Z,74.51
2019-03-18T22:50:14.623Z,74.59
2019-03-18T22:52:42.832Z,74.70
2019-03-18T22:55:12.020Z,74.53
2019-03-18T22:57:40.231Z,74.23
2019-03-18T23:00:28.747Z,74.53
2019-03-18T23:02:56.960Z,74.42
2019-03-18T23:05:25.184Z,74.70
2019-03-18T23:07:53.398Z,75.22
2019-03-18T23:10:21.611Z,75.08
2019-03-18T23:12:49.831Z,74.97
2019-03-18T23:15:18.041Z,75.03
2019-03-18T23:17:46.258Z,75.04
2019-03-18T23:20:14.471Z,75.08
2019-03-18T23:22:42.684Z,75.00
2019-03-18T23:25:10.917Z,75.09
2019-03-18T23:27:39.126Z,75.01
2019-03-18T23:30:13.758Z,75.26
2019-03-18T23:32:41.981Z,75.07
2019-03-18T23:35:10.246Z,74.67
2019-03-18T23:37:38.412Z,74.67
2019-03-18T23:40:12.285Z,74.57
2019-03-18T23:42:40.496Z,74.48
2019-03-18T23:45:09.570Z,74.38
2019-03-18T23:47:37.779Z,74.30
2019-03-18T23:50:11.834Z,74.12
2019-03-18T23:52:40.066Z,74.10
2019-03-18T23:55:18.274Z,73.95
2019-03-18T23:57:38.512Z,73.75
